createdAt,value
2018-11-02T00:00:06.062Z,927.08
2018-11-02T00:00:18.565Z,927.07
2018-11-02T00:00:31.523Z,927.05
2018-11-02T00:00:44.107Z,927.08
2018-11-02T00:00:56.678Z,927.05
2018-11-02T00:01:09.250Z,927.05
2018-11-02T00:01:21.851Z,927.07
2018-11-02T00:01:34.398Z,927.11
2018-11-02T00:01:46.501Z,927.07
2018-11-02T00:01:59.430Z,927.09
2018-11-02T00:02:11.727Z,927.08
2018-11-02T00:02:24.768Z,927.09
2018-11-02T00:02:37.786Z,927.08
2018-11-02T00:02:50.811Z,927.06
2018-11-02T00:03:03.367Z,927.05
2018-11-02T00:03:16.226Z,927.1
2018-11-02T00:03:29.039Z,927.04
2018-11-02T00:03:41.622Z,927.07
2018-11-02T00:03:54.662Z,927.04
2018-11-02T00:04:07.778Z,927.03
2018-11-02T00:04:19.834Z,927.03
2018-11-02T00:04:33.292Z,927.04
2018-11-02T00:04:46.302Z,927.03
2018-11-02T00:04:59.281Z,926.99
2018-11-02T00:05:11.769Z,927.01
2018-11-02T00:05:24.761Z,927.03
2018-11-02T00:05:37.472Z,927
2018-11-02T00:05:50.489Z,927.02
2018-11-02T00:06:03.727Z,927.02
2018-11-02T00:06:16.773Z,927.02
2018-11-02T00:06:30.154Z,927
2018-11-02T00:06:43.718Z,927.01
2018-11-02T00:06:56.736Z,927.02
2018-11-02T00:07:09.206Z,927
2018-11-02T00:07:21.310Z,926.99
2018-11-02T00:07:33.932Z,927.03
2018-11-02T00:07:46.268Z,927.01
2018-11-02T00:07:59.774Z,927
2018-11-02T00:08:12.789Z,927
2018-11-02T00:08:25.363Z,927.01
2018-11-02T00:08:38.391Z,927
2018-11-02T00:08:51.253Z,927.03
2018-11-02T00:09:03.301Z,926.99
2018-11-02T00:09:16.256Z,926.99
2018-11-02T00:09:29.264Z,926.99
2018-11-02T00:09:42.306Z,927
2018-11-02T00:09:55.537Z,927.02
2018-11-02T00:10:08.164Z,926.99
2018-11-02T00:10:20.721Z,926.98
2018-11-02T00:10:33.291Z,927.02
2018-11-02T00:10:46.291Z,927.02
2018-11-02T00:10:58.804Z,926.98
2018-11-02T00:11:12.387Z,927
2018-11-02T00:11:25.441Z,927.01
2018-11-02T00:11:37.511Z,927.01
2018-11-02T00:11:50.518Z,927
2018-11-02T00:12:03.628Z,927.04
2018-11-02T00:12:17.286Z,927.03
2018-11-02T00:12:31.228Z,926.99
2018-11-02T00:12:43.455Z,927.04
2018-11-02T00:12:56.020Z,927.02
2018-11-02T00:13:08.570Z,927.01
2018-11-02T00:13:21.522Z,927.03
2018-11-02T00:13:34.570Z,927.02
2018-11-02T00:13:47.136Z,927
2018-11-02T00:13:59.703Z,926.98
2018-11-02T00:14:11.765Z,927.02
2018-11-02T00:14:25.349Z,927.04
2018-11-02T00:14:37.904Z,926.98
2018-11-02T00:14:50.972Z,926.99
2018-11-02T00:15:03.534Z,926.99
2018-11-02T00:15:16.504Z,927
2018-11-02T00:15:29.929Z,927.01
2018-11-02T00:15:42.989Z,926.99
2018-11-02T00:15:55.120Z,926.97
2018-11-02T00:16:08.129Z,926.97
2018-11-02T00:16:21.105Z,926.93
2018-11-02T00:16:34.057Z,926.94
2018-11-02T00:16:46.899Z,926.97
2018-11-02T00:16:59.951Z,926.97
2018-11-02T00:17:12.522Z,926.97
2018-11-02T00:17:25.039Z,926.95
2018-11-02T00:17:38.282Z,926.98
2018-11-02T00:17:51.784Z,926.97
2018-11-02T00:18:04.459Z,926.98
2018-11-02T00:18:17.057Z,926.96
2018-11-02T00:18:29.602Z,926.97
2018-11-02T00:18:42.617Z,926.97
2018-11-02T00:18:55.768Z,926.95
2018-11-02T00:19:08.769Z,926.91
2018-11-02T00:19:21.771Z,926.93
2018-11-02T00:19:34.330Z,926.93
2018-11-02T00:19:46.378Z,926.9
2018-11-02T00:19:59.556Z,926.93
2018-11-02T00:20:12.085Z,926.95
2018-11-02T00:20:25.145Z,926.94
2018-11-02T00:20:38.129Z,926.95
2018-11-02T00:20:51.169Z,926.93
2018-11-02T00:21:03.936Z,926.94
2018-11-02T00:21:16.466Z,926.95
2018-11-02T00:21:29.053Z,926.94
2018-11-02T00:21:41.548Z,926.89
2018-11-02T00:21:54.100Z,926.92
2018-11-02T00:22:07.772Z,926.95
2018-11-02T00:22:19.429Z,926.93
2018-11-02T00:22:32.466Z,926.93
2018-11-02T00:22:44.491Z,926.95
2018-11-02T00:22:58.010Z,926.91
2018-11-02T00:23:10.892Z,926.94
2018-11-02T00:23:24.204Z,926.96
2018-11-02T00:23:37.254Z,926.93
2018-11-02T00:23:50.195Z,926.97
2018-11-02T00:24:02.756Z,926.95
2018-11-02T00:24:14.855Z,926.93
2018-11-02T00:24:28.165Z,926.97
2018-11-02T00:24:41.203Z,926.96
2018-11-02T00:24:54.254Z,926.95
2018-11-02T00:25:07.393Z,926.96
2018-11-02T00:25:19.935Z,926.96
2018-11-02T00:25:32.906Z,926.96
2018-11-02T00:25:45.441Z,926.94
2018-11-02T00:25:57.980Z,926.95
2018-11-02T00:26:10.979Z,926.94
2018-11-02T00:26:23.972Z,926.94
2018-11-02T00:26:37.047Z,926.95
2018-11-02T00:26:49.591Z,926.93
2018-11-02T00:27:01.235Z,926.94
2018-11-02T00:27:13.801Z,926.95
2018-11-02T00:27:26.885Z,926.92
2018-11-02T00:27:40.406Z,926.97
2018-11-02T00:27:52.955Z,926.94
2018-11-02T00:28:06.299Z,926.92
2018-11-02T00:28:18.887Z,926.95
2018-11-02T00:28:31.437Z,926.96
2018-11-02T00:28:44.598Z,926.91
2018-11-02T00:28:57.719Z,926.96
2018-11-02T00:29:10.813Z,926.93
2018-11-02T00:29:23.851Z,926.95
2018-11-02T00:29:35.441Z,926.97
2018-11-02T00:29:48.446Z,926.93
2018-11-02T00:30:00.747Z,926.94
2018-11-02T00:30:13.270Z,926.92
2018-11-02T00:30:25.789Z,926.91
2018-11-02T00:30:38.352Z,926.9
2018-11-02T00:30:51.330Z,926.89
2018-11-02T00:31:04.665Z,926.88
2018-11-02T00:31:16.786Z,926.87
2018-11-02T00:31:29.819Z,926.86
2018-11-02T00:31:43.119Z,926.92
2018-11-02T00:31:56.118Z,926.86
2018-11-02T00:32:09.058Z,926.84
2018-11-02T00:32:21.632Z,926.85
2018-11-02T00:32:34.642Z,926.88
2018-11-02T00:32:47.655Z,926.83
2018-11-02T00:33:00.693Z,926.85
2018-11-02T00:33:14.022Z,926.83
2018-11-02T00:33:26.993Z,926.84
2018-11-02T00:33:40.004Z,926.84
2018-11-02T00:33:53.030Z,926.86
2018-11-02T00:34:05.560Z,926.88
2018-11-02T00:34:19.094Z,926.84
2018-11-02T00:34:30.762Z,926.86
2018-11-02T00:34:43.743Z,926.86
2018-11-02T00:34:56.355Z,926.91
2018-11-02T00:35:09.386Z,926.9
2018-11-02T00:35:22.757Z,926.89
2018-11-02T00:35:35.610Z,926.89
2018-11-02T00:35:48.140Z,926.86
2018-11-02T00:36:00.673Z,926.88
2018-11-02T00:36:13.735Z,926.87
2018-11-02T00:36:26.756Z,926.88
2018-11-02T00:36:40.061Z,926.89
2018-11-02T00:36:53.026Z,926.88
2018-11-02T00:37:05.520Z,926.9
2018-11-02T00:37:17.616Z,926.91
2018-11-02T00:37:29.755Z,926.89
2018-11-02T00:37:42.818Z,926.9
2018-11-02T00:37:55.853Z,926.95
2018-11-02T00:38:08.965Z,926.93
2018-11-02T00:38:21.555Z,926.94
2018-11-02T00:38:33.648Z,926.92
2018-11-02T00:38:47.049Z,926.94
2018-11-02T00:38:59.638Z,926.93
2018-11-02T00:39:11.639Z,926.93
2018-11-02T00:39:24.665Z,926.92
2018-11-02T00:39:37.221Z,926.92
2018-11-02T00:39:51.608Z,926.92
2018-11-02T00:40:04.123Z,926.93
2018-11-02T00:40:17.146Z,926.92
2018-11-02T00:40:29.739Z,926.91
2018-11-02T00:40:42.803Z,926.95
2018-11-02T00:40:56.074Z,926.9
2018-11-02T00:41:08.790Z,926.9
2018-11-02T00:41:21.349Z,926.93
2018-11-02T00:41:34.405Z,926.93
2018-11-02T00:41:47.012Z,926.89
2018-11-02T00:42:00.437Z,926.9
2018-11-02T00:42:13.333Z,926.9
2018-11-02T00:42:25.904Z,926.88
2018-11-02T00:42:37.543Z,926.89
2018-11-02T00:42:50.576Z,926.91
2018-11-02T00:43:02.631Z,926.91
2018-11-02T00:43:14.800Z,926.89
2018-11-02T00:43:27.839Z,926.89
2018-11-02T00:43:40.365Z,926.89
2018-11-02T00:43:52.040Z,926.9
2018-11-02T00:44:05.881Z,926.9
2018-11-02T00:44:20.630Z,926.9
2018-11-02T00:44:33.148Z,926.91
2018-11-02T00:44:45.703Z,926.88
2018-11-02T00:44:57.749Z,926.92
2018-11-02T00:45:10.330Z,926.92
2018-11-02T00:45:23.596Z,926.91
2018-11-02T00:45:36.604Z,926.89
2018-11-02T00:45:49.164Z,926.86
2018-11-02T00:46:01.247Z,926.86
2018-11-02T00:46:13.364Z,926.87
2018-11-02T00:46:26.648Z,926.84
2018-11-02T00:46:39.888Z,926.85
2018-11-02T00:46:52.962Z,926.86
2018-11-02T00:47:05.469Z,926.84
2018-11-02T00:47:17.989Z,926.9
2018-11-02T00:47:30.087Z,926.89
2018-11-02T00:47:43.395Z,926.84
2018-11-02T00:47:55.851Z,926.86
2018-11-02T00:48:08.498Z,926.88
2018-11-02T00:48:21.545Z,926.88
2018-11-02T00:48:34.100Z,926.88
2018-11-02T00:48:47.550Z,926.9
2018-11-02T00:49:00.097Z,926.87
2018-11-02T00:49:13.078Z,926.87
2018-11-02T00:49:26.258Z,926.89
2018-11-02T00:49:39.338Z,926.88
2018-11-02T00:49:52.478Z,926.85
2018-11-02T00:50:04.993Z,926.85
2018-11-02T00:50:18.010Z,926.85
2018-11-02T00:50:31.115Z,926.82
2018-11-02T00:50:43.166Z,926.81
2018-11-02T00:50:56.415Z,926.84
2018-11-02T00:51:09.009Z,926.82
2018-11-02T00:51:22.030Z,926.82
2018-11-02T00:51:34.569Z,926.83
2018-11-02T00:51:46.670Z,926.8
2018-11-02T00:51:59.071Z,926.81
2018-11-02T00:52:11.462Z,926.81
2018-11-02T00:52:24.010Z,926.83
2018-11-02T00:52:36.506Z,926.77
2018-11-02T00:52:49.578Z,926.79
2018-11-02T00:53:01.653Z,926.82
2018-11-02T00:53:14.527Z,926.81
2018-11-02T00:53:27.535Z,926.81
2018-11-02T00:53:40.129Z,926.8
2018-11-02T00:53:53.199Z,926.81
2018-11-02T00:54:05.278Z,926.85
2018-11-02T00:54:18.203Z,926.79
2018-11-02T00:54:30.258Z,926.81
2018-11-02T00:54:42.813Z,926.78
2018-11-02T00:54:55.401Z,926.8
2018-11-02T00:55:08.461Z,926.79
2018-11-02T00:55:21.466Z,926.81
2018-11-02T00:55:34.082Z,926.8
2018-11-02T00:55:47.104Z,926.8
2018-11-02T00:56:00.192Z,926.84
2018-11-02T00:56:12.734Z,926.83
2018-11-02T00:56:25.830Z,926.82
2018-11-02T00:56:39.115Z,926.78
2018-11-02T00:56:51.640Z,926.83
2018-11-02T00:57:04.602Z,926.81
2018-11-02T00:57:17.191Z,926.87
2018-11-02T00:57:29.739Z,926.87
2018-11-02T00:57:43.355Z,926.84
2018-11-02T00:57:56.360Z,926.86
2018-11-02T00:58:09.399Z,926.87
2018-11-02T00:58:21.944Z,926.86
2018-11-02T00:58:34.944Z,926.87
2018-11-02T00:58:47.784Z,926.88
2018-11-02T00:59:00.863Z,926.9
2018-11-02T00:59:13.892Z,926.87
2018-11-02T00:59:26.906Z,926.88
2018-11-02T00:59:39.900Z,926.88
2018-11-02T00:59:52.205Z,926.88
2018-11-02T01:00:04.763Z,926.87
2018-11-02T01:00:16.376Z,926.89
2018-11-02T01:00:28.936Z,926.89
2018-11-02T01:00:41.586Z,926.86
2018-11-02T01:00:53.739Z,926.87
2018-11-02T01:01:06.255Z,926.84
2018-11-02T01:01:18.803Z,926.84
2018-11-02T01:01:31.796Z,926.84
2018-11-02T01:01:44.758Z,926.85
2018-11-02T01:01:57.615Z,926.88
2018-11-02T01:02:09.972Z,926.84
2018-11-02T01:02:23.013Z,926.86
2018-11-02T01:02:35.558Z,926.89
2018-11-02T01:02:48.552Z,926.87
2018-11-02T01:03:01.165Z,926.9
2018-11-02T01:03:13.774Z,926.89
2018-11-02T01:03:26.872Z,926.85
2018-11-02T01:03:38.903Z,926.86
2018-11-02T01:03:51.862Z,926.88
2018-11-02T01:04:04.422Z,926.87
2018-11-02T01:04:17.396Z,926.91
2018-11-02T01:04:30.422Z,926.88
2018-11-02T01:04:42.580Z,926.88
2018-11-02T01:04:55.780Z,926.88
2018-11-02T01:05:08.337Z,926.93
2018-11-02T01:05:21.655Z,926.91
2018-11-02T01:05:33.680Z,926.92
2018-11-02T01:05:46.804Z,926.94
2018-11-02T01:05:59.377Z,926.93
2018-11-02T01:06:12.003Z,926.93
2018-11-02T01:06:24.110Z,926.9
2018-11-02T01:06:36.465Z,926.9
2018-11-02T01:06:49.530Z,926.91
2018-11-02T01:07:02.040Z,926.89
2018-11-02T01:07:14.686Z,926.9
2018-11-02T01:07:27.311Z,926.91
2018-11-02T01:07:40.344Z,926.94
2018-11-02T01:07:52.394Z,926.95
2018-11-02T01:08:05.404Z,926.97
2018-11-02T01:08:18.132Z,926.94
2018-11-02T01:08:30.210Z,926.95
2018-11-02T01:08:42.751Z,926.96
2018-11-02T01:08:54.836Z,926.94
2018-11-02T01:09:07.904Z,926.95
2018-11-02T01:09:20.444Z,926.95
2018-11-02T01:09:32.596Z,926.98
2018-11-02T01:09:45.010Z,926.99
2018-11-02T01:09:58.236Z,926.94
2018-11-02T01:10:09.371Z,926.98
2018-11-02T01:10:22.498Z,926.98
2018-11-02T01:10:35.534Z,926.99
2018-11-02T01:10:48.182Z,927.01
2018-11-02T01:11:01.379Z,926.99
2018-11-02T01:11:13.420Z,926.94
2018-11-02T01:11:25.043Z,926.97
2018-11-02T01:11:38.130Z,926.95
2018-11-02T01:11:50.622Z,926.97
2018-11-02T01:12:02.969Z,926.94
2018-11-02T01:12:15.511Z,926.98
2018-11-02T01:12:28.549Z,926.97
2018-11-02T01:12:40.620Z,926.99
2018-11-02T01:12:53.185Z,926.95
2018-11-02T01:13:05.878Z,926.99
2018-11-02T01:13:18.592Z,926.96
2018-11-02T01:13:31.654Z,926.99
2018-11-02T01:13:43.797Z,926.99
2018-11-02T01:13:56.433Z,926.93
2018-11-02T01:14:08.953Z,926.96
2018-11-02T01:14:22.167Z,926.97
2018-11-02T01:14:34.712Z,926.97
2018-11-02T01:14:47.259Z,926.96
2018-11-02T01:14:58.867Z,926.96
2018-11-02T01:15:11.448Z,926.94
2018-11-02T01:15:24.850Z,926.97
2018-11-02T01:15:37.389Z,926.97
2018-11-02T01:15:50.437Z,926.97
2018-11-02T01:16:02.010Z,926.96
2018-11-02T01:16:14.059Z,926.94
2018-11-02T01:16:26.341Z,926.94
2018-11-02T01:16:40.163Z,926.96
2018-11-02T01:16:53.924Z,926.94
2018-11-02T01:17:06.492Z,926.97
2018-11-02T01:17:19.531Z,926.94
2018-11-02T01:17:32.787Z,926.9
2018-11-02T01:17:46.093Z,926.94
2018-11-02T01:17:58.588Z,926.93
2018-11-02T01:18:11.295Z,926.94
2018-11-02T01:18:24.005Z,926.94
2018-11-02T01:18:36.882Z,926.92
2018-11-02T01:18:50.343Z,926.95
2018-11-02T01:19:02.898Z,926.96
2018-11-02T01:19:15.980Z,926.97
2018-11-02T01:19:28.988Z,926.95
2018-11-02T01:19:42.000Z,926.97
2018-11-02T01:19:54.790Z,926.96
2018-11-02T01:20:06.412Z,926.99
2018-11-02T01:20:18.975Z,926.99
2018-11-02T01:20:31.983Z,926.99
2018-11-02T01:20:44.987Z,926.99
2018-11-02T01:20:57.492Z,926.97
2018-11-02T01:21:10.036Z,927.01
2018-11-02T01:21:22.060Z,927
2018-11-02T01:21:34.137Z,926.98
2018-11-02T01:21:47.143Z,927.03
2018-11-02T01:21:59.525Z,927.04
2018-11-02T01:22:12.131Z,927.05
2018-11-02T01:22:25.168Z,927.07
2018-11-02T01:22:38.254Z,927.03
2018-11-02T01:22:51.335Z,927.04
2018-11-02T01:23:04.656Z,927.07
2018-11-02T01:23:17.426Z,927.06
2018-11-02T01:23:30.517Z,927.06
2018-11-02T01:23:42.609Z,927.08
2018-11-02T01:23:55.742Z,927.07
2018-11-02T01:24:08.310Z,927.05
2018-11-02T01:24:20.314Z,927.03
2018-11-02T01:24:32.395Z,927.04
2018-11-02T01:24:45.482Z,927.06
2018-11-02T01:24:58.530Z,927.06
2018-11-02T01:25:11.037Z,927.03
2018-11-02T01:25:24.408Z,927.06
2018-11-02T01:25:37.414Z,927.04
2018-11-02T01:25:50.438Z,927.06
2018-11-02T01:26:02.489Z,927.02
2018-11-02T01:26:15.050Z,927.04
2018-11-02T01:26:27.843Z,927.05
2018-11-02T01:26:40.380Z,927.05
2018-11-02T01:26:52.927Z,927.02
2018-11-02T01:27:05.471Z,927.06
2018-11-02T01:27:18.543Z,927.06
2018-11-02T01:27:32.202Z,927.07
2018-11-02T01:27:44.803Z,927.06
2018-11-02T01:27:57.320Z,927.06
2018-11-02T01:28:09.398Z,927.08
2018-11-02T01:28:21.985Z,927.11
2018-11-02T01:28:34.515Z,927.1
2018-11-02T01:28:46.817Z,927.09
2018-11-02T01:28:59.390Z,927.08
2018-11-02T01:29:12.630Z,927.13
2018-11-02T01:29:24.242Z,927.12
2018-11-02T01:29:36.778Z,927.1
2018-11-02T01:29:49.580Z,927.1
2018-11-02T01:30:02.171Z,927.13
2018-11-02T01:30:14.721Z,927.09
2018-11-02T01:30:27.771Z,927.06
2018-11-02T01:30:40.296Z,927.09
2018-11-02T01:30:52.709Z,927.09
2018-11-02T01:31:05.726Z,927.11
2018-11-02T01:31:18.297Z,927.06
2018-11-02T01:31:31.342Z,927.06
2018-11-02T01:31:44.350Z,927.09
2018-11-02T01:31:57.971Z,927.08
2018-11-02T01:32:09.617Z,927.1
2018-11-02T01:32:22.195Z,927.11
2018-11-02T01:32:34.762Z,927.08
2018-11-02T01:32:47.790Z,927.07
2018-11-02T01:33:00.960Z,927.07
2018-11-02T01:33:13.965Z,927.03
2018-11-02T01:33:26.589Z,927.04
2018-11-02T01:33:39.621Z,927.07
2018-11-02T01:33:52.649Z,927.06
2018-11-02T01:34:05.253Z,927.01
2018-11-02T01:34:18.031Z,927.02
2018-11-02T01:34:31.022Z,927.01
2018-11-02T01:34:43.545Z,927.01
2018-11-02T01:34:56.140Z,927.02
2018-11-02T01:35:08.686Z,927
2018-11-02T01:35:22.040Z,926.99
2018-11-02T01:35:34.612Z,926.92
2018-11-02T01:35:47.654Z,926.94
2018-11-02T01:36:00.717Z,926.96
2018-11-02T01:36:12.785Z,926.96
2018-11-02T01:36:25.628Z,926.96
2018-11-02T01:36:38.171Z,926.92
2018-11-02T01:36:50.699Z,926.96
2018-11-02T01:37:03.259Z,926.95
2018-11-02T01:37:15.369Z,926.95
2018-11-02T01:37:28.734Z,926.93
2018-11-02T01:37:41.017Z,926.91
2018-11-02T01:37:54.056Z,926.93
2018-11-02T01:38:07.073Z,926.92
2018-11-02T01:38:19.179Z,926.91
2018-11-02T01:38:31.800Z,926.92
2018-11-02T01:38:44.729Z,926.91
2018-11-02T01:38:57.735Z,926.92
2018-11-02T01:39:10.744Z,926.9
2018-11-02T01:39:23.295Z,926.91
2018-11-02T01:39:35.795Z,926.89
2018-11-02T01:39:48.728Z,926.92
2018-11-02T01:40:01.776Z,926.92
2018-11-02T01:40:13.875Z,926.94
2018-11-02T01:40:26.945Z,926.94
2018-11-02T01:40:39.495Z,926.89
2018-11-02T01:40:52.091Z,926.92
2018-11-02T01:41:04.613Z,926.92
2018-11-02T01:41:17.159Z,926.91
2018-11-02T01:41:29.724Z,926.89
2018-11-02T01:41:42.362Z,926.92
2018-11-02T01:41:55.824Z,926.96
2018-11-02T01:42:08.387Z,926.94
2018-11-02T01:42:21.378Z,926.98
2018-11-02T01:42:33.443Z,926.94
2018-11-02T01:42:46.024Z,926.93
2018-11-02T01:42:58.567Z,926.93
2018-11-02T01:43:11.449Z,926.91
2018-11-02T01:43:24.430Z,926.93
2018-11-02T01:43:37.554Z,926.91
2018-11-02T01:43:49.646Z,926.92
2018-11-02T01:44:01.743Z,926.89
2018-11-02T01:44:15.064Z,926.89
2018-11-02T01:44:28.072Z,926.86
2018-11-02T01:44:41.118Z,926.88
2018-11-02T01:44:54.174Z,926.92
2018-11-02T01:45:07.150Z,926.89
2018-11-02T01:45:19.927Z,926.9
2018-11-02T01:45:32.054Z,926.9
2018-11-02T01:45:44.623Z,926.87
2018-11-02T01:45:57.696Z,926.89
2018-11-02T01:46:10.199Z,926.89
2018-11-02T01:46:23.667Z,926.89
2018-11-02T01:46:36.233Z,926.87
2018-11-02T01:46:49.309Z,926.87
2018-11-02T01:47:02.352Z,926.86
2018-11-02T01:47:14.912Z,926.86
2018-11-02T01:47:28.145Z,926.87
2018-11-02T01:47:41.366Z,926.87
2018-11-02T01:47:54.388Z,926.87
2018-11-02T01:48:07.394Z,926.85
2018-11-02T01:48:19.939Z,926.86
2018-11-02T01:48:33.393Z,926.87
2018-11-02T01:48:46.642Z,926.89
2018-11-02T01:48:58.767Z,926.83
2018-11-02T01:49:10.854Z,926.84
2018-11-02T01:49:23.379Z,926.86
2018-11-02T01:49:35.475Z,926.84
2018-11-02T01:49:48.897Z,926.84
2018-11-02T01:50:01.930Z,926.84
2018-11-02T01:50:14.453Z,926.87
2018-11-02T01:50:27.479Z,926.87
2018-11-02T01:50:40.519Z,926.91
2018-11-02T01:50:53.331Z,926.87
2018-11-02T01:51:05.926Z,926.85
2018-11-02T01:51:18.954Z,926.89
2018-11-02T01:51:31.095Z,926.89
2018-11-02T01:51:43.760Z,926.87
2018-11-02T01:51:56.584Z,926.86
2018-11-02T01:52:09.165Z,926.87
2018-11-02T01:52:22.248Z,926.88
2018-11-02T01:52:35.330Z,926.85
2018-11-02T01:52:48.414Z,926.88
2018-11-02T01:53:01.229Z,926.87
2018-11-02T01:53:13.871Z,926.88
2018-11-02T01:53:26.944Z,926.9
2018-11-02T01:53:41.331Z,926.96
2018-11-02T01:53:53.922Z,926.9
2018-11-02T01:54:07.400Z,926.91
2018-11-02T01:54:20.662Z,926.95
2018-11-02T01:54:33.260Z,926.92
2018-11-02T01:54:45.863Z,926.94
2018-11-02T01:54:58.430Z,926.91
2018-11-02T01:55:11.658Z,926.92
2018-11-02T01:55:24.290Z,926.96
2018-11-02T01:55:36.859Z,926.95
2018-11-02T01:55:48.878Z,926.93
2018-11-02T01:56:01.881Z,926.98
2018-11-02T01:56:14.904Z,926.95
2018-11-02T01:56:27.694Z,926.99
2018-11-02T01:56:40.400Z,926.94
2018-11-02T01:56:53.433Z,926.98
2018-11-02T01:57:06.011Z,926.99
2018-11-02T01:57:17.693Z,926.99
2018-11-02T01:57:30.641Z,927
2018-11-02T01:57:43.273Z,926.98
2018-11-02T01:57:55.861Z,927.03
2018-11-02T01:58:08.464Z,927.02
2018-11-02T01:58:21.599Z,927.02
2018-11-02T01:58:34.927Z,927.01
2018-11-02T01:58:47.021Z,927.02
2018-11-02T01:59:00.143Z,927
2018-11-02T01:59:13.167Z,927.03
2018-11-02T01:59:25.741Z,927.03
2018-11-02T01:59:37.825Z,927.04
2018-11-02T01:59:50.720Z,927.02
2018-11-02T02:00:03.348Z,927.04
2018-11-02T02:00:15.928Z,927.02
2018-11-02T02:00:28.968Z,927.05
2018-11-02T02:00:42.051Z,927.05
2018-11-02T02:00:55.657Z,927.04
2018-11-02T02:01:08.682Z,927.02
2018-11-02T02:01:21.219Z,927.02
2018-11-02T02:01:33.821Z,927.03
2018-11-02T02:01:46.875Z,927.05
2018-11-02T02:01:59.584Z,927.04
2018-11-02T02:02:11.253Z,927
2018-11-02T02:02:24.251Z,927.02
2018-11-02T02:02:37.316Z,927.01
2018-11-02T02:02:49.874Z,927.06
2018-11-02T02:03:02.862Z,926.99
2018-11-02T02:03:15.785Z,927
2018-11-02T02:03:28.401Z,926.98
2018-11-02T02:03:40.543Z,926.98
2018-11-02T02:03:53.040Z,927.01
2018-11-02T02:04:05.351Z,926.97
2018-11-02T02:04:18.651Z,926.96
2018-11-02T02:04:30.732Z,926.93
2018-11-02T02:04:42.791Z,926.96
2018-11-02T02:04:54.916Z,926.97
2018-11-02T02:05:07.952Z,926.98
2018-11-02T02:05:21.733Z,926.95
2018-11-02T02:05:34.789Z,926.93
2018-11-02T02:05:47.407Z,926.93
2018-11-02T02:06:00.434Z,926.95
2018-11-02T02:06:12.969Z,926.99
2018-11-02T02:06:25.767Z,926.94
2018-11-02T02:06:38.824Z,926.96
2018-11-02T02:06:51.868Z,926.92
2018-11-02T02:07:04.883Z,926.95
2018-11-02T02:07:17.964Z,926.96
2018-11-02T02:07:31.516Z,926.96
2018-11-02T02:07:44.144Z,927
2018-11-02T02:07:56.733Z,926.99
2018-11-02T02:08:09.360Z,926.97
2018-11-02T02:08:21.448Z,926.95
2018-11-02T02:08:34.846Z,926.96
2018-11-02T02:08:48.073Z,927.01
2018-11-02T02:09:00.631Z,926.97
2018-11-02T02:09:12.689Z,926.97
2018-11-02T02:09:25.260Z,926.97
2018-11-02T02:09:38.207Z,927
2018-11-02T02:09:50.283Z,926.97
2018-11-02T02:10:02.807Z,926.97
2018-11-02T02:10:14.455Z,926.97
2018-11-02T02:10:27.509Z,926.98
2018-11-02T02:10:40.401Z,927.03
2018-11-02T02:10:53.676Z,927.01
2018-11-02T02:11:06.239Z,927.01
2018-11-02T02:11:19.323Z,927.02
2018-11-02T02:11:31.471Z,927.03
2018-11-02T02:11:44.478Z,927.03
2018-11-02T02:11:57.288Z,927
2018-11-02T02:12:08.910Z,927.03
2018-11-02T02:12:21.496Z,927.03
2018-11-02T02:12:34.030Z,927
2018-11-02T02:12:46.652Z,927.05
2018-11-02T02:13:00.345Z,927.05
2018-11-02T02:13:13.923Z,927
2018-11-02T02:13:27.420Z,927.06
2018-11-02T02:13:40.538Z,927.04
2018-11-02T02:13:53.604Z,927.04
2018-11-02T02:14:06.464Z,927.04
2018-11-02T02:14:18.593Z,927.02
2018-11-02T02:14:31.155Z,927
2018-11-02T02:14:44.187Z,927.02
2018-11-02T02:14:56.810Z,927.03
2018-11-02T02:15:08.440Z,927.01
2018-11-02T02:15:21.731Z,927
2018-11-02T02:15:34.254Z,926.99
2018-11-02T02:15:45.902Z,926.99
2018-11-02T02:15:58.982Z,926.98
2018-11-02T02:16:11.515Z,926.96
2018-11-02T02:16:24.506Z,926.97
2018-11-02T02:16:37.017Z,926.94
2018-11-02T02:16:50.125Z,926.96
2018-11-02T02:17:03.146Z,926.94
2018-11-02T02:17:16.193Z,926.95
2018-11-02T02:17:29.514Z,926.94
2018-11-02T02:17:42.514Z,926.94
2018-11-02T02:17:54.587Z,926.94
2018-11-02T02:18:07.612Z,926.93
2018-11-02T02:18:20.177Z,926.94
2018-11-02T02:18:33.333Z,926.95
2018-11-02T02:18:46.405Z,926.92
2018-11-02T02:18:58.982Z,926.93
2018-11-02T02:19:12.003Z,926.94
2018-11-02T02:19:25.125Z,926.93
2018-11-02T02:19:37.931Z,926.92
2018-11-02T02:19:50.003Z,926.91
2018-11-02T02:20:02.577Z,926.92
2018-11-02T02:20:14.672Z,926.9
2018-11-02T02:20:27.729Z,926.96
2018-11-02T02:20:41.380Z,926.93
2018-11-02T02:20:54.609Z,926.92
2018-11-02T02:21:06.253Z,926.91
2018-11-02T02:21:19.345Z,926.93
2018-11-02T02:21:31.911Z,926.93
2018-11-02T02:21:45.342Z,926.91
2018-11-02T02:21:58.186Z,926.91
2018-11-02T02:22:10.766Z,926.89
2018-11-02T02:22:23.767Z,926.92
2018-11-02T02:22:36.774Z,926.91
2018-11-02T02:22:49.882Z,926.88
2018-11-02T02:23:04.900Z,926.88
2018-11-02T02:23:17.454Z,926.9
2018-11-02T02:23:30.520Z,926.88
2018-11-02T02:23:44.664Z,926.88
2018-11-02T02:23:58.028Z,926.88
2018-11-02T02:24:11.350Z,926.89
2018-11-02T02:24:23.422Z,926.91
2018-11-02T02:24:35.956Z,926.9
2018-11-02T02:24:48.023Z,926.87
2018-11-02T02:25:00.559Z,926.93
2018-11-02T02:25:12.606Z,926.92
2018-11-02T02:25:25.702Z,926.91
2018-11-02T02:25:38.745Z,926.89
2018-11-02T02:25:50.874Z,926.9
2018-11-02T02:26:03.919Z,926.95
2018-11-02T02:26:17.412Z,926.9
2018-11-02T02:26:30.459Z,926.93
2018-11-02T02:26:42.097Z,926.94
2018-11-02T02:26:54.198Z,926.92
2018-11-02T02:27:06.764Z,926.9
2018-11-02T02:27:20.061Z,926.9
2018-11-02T02:27:32.741Z,926.91
2018-11-02T02:27:45.282Z,926.89
2018-11-02T02:27:57.812Z,926.89
2018-11-02T02:28:09.955Z,926.86
2018-11-02T02:28:23.314Z,926.9
2018-11-02T02:28:36.655Z,926.9
2018-11-02T02:28:49.685Z,926.87
2018-11-02T02:29:02.263Z,926.86
2018-11-02T02:29:14.406Z,926.86
2018-11-02T02:29:26.962Z,926.86
2018-11-02T02:29:40.287Z,926.89
2018-11-02T02:29:52.861Z,926.89
2018-11-02T02:30:04.913Z,926.88
2018-11-02T02:30:17.997Z,926.88
2018-11-02T02:30:31.033Z,926.88
2018-11-02T02:30:44.317Z,926.91
2018-11-02T02:30:57.343Z,926.89
2018-11-02T02:31:10.436Z,926.89
2018-11-02T02:31:23.519Z,926.92
2018-11-02T02:31:36.551Z,926.94
2018-11-02T02:31:49.458Z,926.9
2018-11-02T02:32:01.550Z,926.89
2018-11-02T02:32:14.107Z,926.89
2018-11-02T02:32:26.183Z,926.86
2018-11-02T02:32:38.760Z,926.9
2018-11-02T02:32:51.347Z,926.93
2018-11-02T02:33:04.165Z,926.9
2018-11-02T02:33:17.240Z,926.9
2018-11-02T02:33:30.210Z,926.88
2018-11-02T02:33:43.237Z,926.89
2018-11-02T02:33:56.539Z,926.89
2018-11-02T02:34:09.574Z,926.91
2018-11-02T02:34:22.192Z,926.9
2018-11-02T02:34:34.807Z,926.89
2018-11-02T02:34:47.826Z,926.89
2018-11-02T02:35:00.893Z,926.88
2018-11-02T02:35:14.368Z,926.9
2018-11-02T02:35:27.377Z,926.92
2018-11-02T02:35:39.428Z,926.89
2018-11-02T02:35:51.979Z,926.92
2018-11-02T02:36:04.621Z,926.88
2018-11-02T02:36:18.007Z,926.89
2018-11-02T02:36:31.029Z,926.89
2018-11-02T02:36:44.091Z,926.9
2018-11-02T02:36:57.107Z,926.94
2018-11-02T02:37:09.652Z,926.9
2018-11-02T02:37:21.294Z,926.94
2018-11-02T02:37:34.473Z,926.91
2018-11-02T02:37:47.136Z,926.9
2018-11-02T02:37:59.298Z,926.94
2018-11-02T02:38:11.380Z,926.93
2018-11-02T02:38:24.687Z,926.92
2018-11-02T02:38:37.960Z,926.9
2018-11-02T02:38:51.551Z,926.93
2018-11-02T02:39:04.645Z,926.92
2018-11-02T02:39:17.209Z,926.94
2018-11-02T02:39:30.572Z,926.96
2018-11-02T02:39:43.919Z,926.95
2018-11-02T02:39:56.985Z,926.95
2018-11-02T02:40:08.640Z,926.97